Aeroporto :
LOGIN :

Iscrizione | Disclaimer

   EN    FR    IT 

 










Sommario :    VFR   VFR Marginale   IFR   IFR Intensivo   IFR Molto Intensivo
Visibilità : 
Base nubi : 
>= 8 km
>= 3000ft
5 / 8 km
1000 / 3000 ft
1500m / 5 km
500 / 1000 ft
800 / 1500m
200 / 500 ft
< 800m
< 200 ft
Simboli :   Temporali  Nebbia  Neve Forte  Precipitazioni Forti  Vento > 20 kt
SIGMETs :   Varie  Temporali  Ghiacco  Turbolenza  Onda orograficha  Ceneri Vulcaniche






- Altitudine del aeroporto : 1649 ft
- Codice IATA : HHN


EDFH - Frankfurt-Hahn Rhineland-Palatinate

ULTIMO METAR :
  • 101250Z 34003KT 240V050 CAVOK 19/06 Q1024

METARs OBSOLETI :
  • 101220Z VRB04KT CAVOK 18/06 Q1024
  • 101150Z VRB04KT CAVOK 18/06 Q1025
  • 101120Z VRB03KT CAVOK 18/06 Q1025
  • 101050Z 14004KT 050V190 CAVOK 17/07 Q1025
  • 101020Z 13005KT 080V170 CAVOK 17/07 Q1025

TAF TAF EDFH
Valido dal 10 a 12 ore il 11 a 12 ore UTC


101100Z 1012/1112 05007KT CAVOK
BECMG 1100/1103 11007KT



MetMap, La meteo Aeronautica in un colpo d'occhio ! - Copyright ORBIFLY Dicembre 2007 - Disclaimer

ORBIFLY MET'MAP TEAM :

Programmazione e sviluppo : Alexandra Zaïnal
Concezione : Baudouin d'Aumeries
Aiuto per la programmazione : Marc-Olivier Méhu
Supporto tecnico e logistico : Manuel Goepfert
Aiuto per la traduzione : Arnaldo La Scala

Contatto : metmap@orbifly.com




FONTI E CREDITI :

   NOAA